Time;durP1;ratioP1;P1;durP2;ratioP2;P2;SDS_P1;SDS_P2;PMS_P1;PMS_P2;Temp;Humidity;BMP_temperature;BMP_pressure;BME280_temperature;BME280_humidity;BME280_pressure;Samples;Min_cycle;Max_cycle;Signal;HPM_P1;HPM_P2
2023/12/26 00:02:24;;;;;;;1.27;1.10;;;8.60;99.90;;;;;;5011509;28;20443;-57
2023/12/26 00:04:51;;;;;;;4.83;1.30;;;8.60;99.90;;;;;;5010193;28;20456;-57
2023/12/26 00:07:17;;;;;;;2.80;1.30;;;8.60;99.90;;;;;;5013704;28;20512;-57
2023/12/26 00:09:44;;;;;;;2.50;1.13;;;8.60;99.90;;;;;;5013653;28;20487;-57
2023/12/26 00:12:12;;;;;;;2.10;1.20;;;8.60;99.90;;;;;;5010730;28;20468;-57
2023/12/26 00:14:38;;;;;;;5.73;1.63;;;8.50;99.90;;;;;;5012900;28;21003;-61
2023/12/26 00:17:05;;;;;;;3.27;2.70;;;8.50;99.90;;;;;;5010758;28;20436;-56
2023/12/26 00:19:32;;;;;;;3.90;1.00;;;8.50;99.90;;;;;;5012752;28;20531;-56
2023/12/26 00:21:58;;;;;;;3.80;1.10;;;8.50;99.90;;;;;;5013659;28;20448;-55
2023/12/26 00:24:25;;;;;;;2.13;0.87;;;8.50;99.90;;;;;;5008097;28;20464;-60
2023/12/26 00:26:51;;;;;;;2.67;1.17;;;8.50;99.90;;;;;;5004447;28;20943;-60
2023/12/26 00:29:19;;;;;;;3.23;1.00;;;8.50;99.90;;;;;;5009315;28;20553;-57
2023/12/26 00:31:46;;;;;;;1.97;1.30;;;8.50;99.90;;;;;;5008057;28;20519;-57
2023/12/26 00:34:13;;;;;;;1.10;1.00;;;8.50;99.90;;;;;;5012768;28;20448;-56
2023/12/26 00:36:39;;;;;;;1.63;1.20;;;8.50;99.90;;;;;;5011890;28;20460;-55
2023/12/26 00:39:06;;;;;;;2.67;1.07;;;8.50;99.90;;;;;;5011431;28;20507;-58
2023/12/26 00:41:32;;;;;;;1.80;1.00;;;8.50;99.90;;;;;;5010623;28;20460;-58
2023/12/26 00:43:59;;;;;;;2.70;0.97;;;8.50;99.90;;;;;;5008546;28;20674;-57
2023/12/26 00:46:27;;;;;;;1.67;0.80;;;8.50;99.90;;;;;;5009840;28;20467;-56
2023/12/26 00:48:54;;;;;;;2.40;1.13;;;8.50;99.90;;;;;;5009211;28;20475;-56
2023/12/26 00:51:20;;;;;;;2.80;1.20;;;8.50;99.90;;;;;;5007964;28;20491;-57
2023/12/26 00:53:47;;;;;;;1.43;1.33;;;8.50;99.90;;;;;;5009131;28;20517;-57
2023/12/26 00:56:14;;;;;;;1.97;1.20;;;8.50;99.90;;;;;;5010515;28;20464;-56
2023/12/26 00:58:41;;;;;;;3.20;1.10;;;8.60;99.90;;;;;;5010116;28;20521;-57
2023/12/26 01:01:07;;;;;;;0.80;0.80;;;8.50;99.90;;;;;;5008909;28;20484;-56
2023/12/26 01:03:35;;;;;;;3.30;1.40;;;8.60;99.90;;;;;;5008575;28;20550;-55
2023/12/26 01:06:02;;;;;;;5.67;1.57;;;8.60;99.90;;;;;;5009349;28;20542;-59
2023/12/26 01:08:29;;;;;;;1.10;1.00;;;8.60;99.90;;;;;;5006706;28;20464;-55
2023/12/26 01:10:55;;;;;;;1.00;0.90;;;8.60;99.90;;;;;;5008884;28;20546;-56
2023/12/26 01:13:22;;;;;;;0.77;0.63;;;8.60;99.90;;;;;;5010911;28;20992;-59
2023/12/26 01:15:48;;;;;;;1.00;0.73;;;8.60;99.90;;;;;;5010747;28;20459;-58
2023/12/26 01:18:15;;;;;;;1.43;1.00;;;8.60;99.90;;;;;;5004880;28;20467;-56
2023/12/26 01:20:43;;;;;;;2.20;1.23;;;8.60;99.90;;;;;;5004599;28;20471;-57
2023/12/26 01:23:09;;;;;;;2.70;1.30;;;8.60;99.90;;;;;;5010392;28;20459;-58
2023/12/26 01:25:36;;;;;;;1.17;0.80;;;8.60;99.90;;;;;;5010620;28;20807;-59
2023/12/26 01:28:03;;;;;;;1.30;0.87;;;8.70;99.90;;;;;;5010036;28;20463;-60
2023/12/26 01:30:30;;;;;;;1.37;0.80;;;8.60;99.90;;;;;;5008554;28;20864;-58
2023/12/26 01:32:57;;;;;;;0.97;0.77;;;8.60;99.90;;;;;;5006934;28;20467;-56
2023/12/26 01:35:23;;;;;;;4.60;1.07;;;8.60;99.90;;;;;;5009710;28;21086;-56
2023/12/26 01:37:51;;;;;;;1.03;0.93;;;8.60;99.90;;;;;;5008059;28;20511;-59
2023/12/26 01:40:18;;;;;;;3.03;1.23;;;8.60;99.90;;;;;;5009672;28;20490;-60
2023/12/26 01:42:46;;;;;;;2.80;1.10;;;8.60;99.90;;;;;;5009349;28;20471;-57
2023/12/26 01:45:12;;;;;;;0.80;0.80;;;8.70;99.90;;;;;;5009997;28;20490;-56
2023/12/26 01:47:39;;;;;;;0.80;0.80;;;8.70;99.90;;;;;;5009863;28;20459;-56
2023/12/26 01:50:07;;;;;;;0.90;0.70;;;8.70;99.90;;;;;;5011065;28;20989;-56
2023/12/26 01:52:35;;;;;;;0.70;0.70;;;8.70;99.90;;;;;;5010332;28;20984;-55
2023/12/26 01:55:04;;;;;;;0.70;0.70;;;8.70;99.90;;;;;;5010095;28;20518;-58
2023/12/26 01:57:34;;;;;;;1.00;0.80;;;8.70;99.90;;;;;;5011503;28;20448;-58
2023/12/26 02:00:02;;;;;;;1.00;0.73;;;8.70;99.90;;;;;;5007169;28;20566;-60
2023/12/26 02:02:30;;;;;;;0.83;0.80;;;8.70;99.90;;;;;;5006141;28;20463;-56
2023/12/26 02:04:57;;;;;;;0.60;0.60;;;8.80;99.90;;;;;;5009019;28;20455;-56
2023/12/26 02:07:24;;;;;;;0.80;0.67;;;8.70;99.90;;;;;;5008170;28;21776;-57
2023/12/26 02:09:51;;;;;;;1.53;1.07;;;8.70;99.90;;;;;;5009624;28;20483;-57
2023/12/26 02:12:19;;;;;;;0.70;0.60;;;8.80;99.90;;;;;;5004935;28;20807;-57
2023/12/26 02:14:46;;;;;;;1.93;0.97;;;8.80;99.90;;;;;;5009266;28;20861;-58
2023/12/26 02:17:18;;;;;;;0.73;0.73;;;8.80;99.90;;;;;;5007593;28;20461;-60
2023/12/26 02:19:47;;;;;;;1.23;0.60;;;8.90;99.90;;;;;;5010730;28;20549;-56
2023/12/26 02:22:14;;;;;;;0.70;0.60;;;8.90;99.90;;;;;;5011039;28;20444;-60
2023/12/26 02:24:43;;;;;;;0.80;0.53;;;8.90;99.90;;;;;;5009196;28;20529;-56
2023/12/26 02:27:15;;;;;;;0.87;0.60;;;8.90;99.90;;;;;;5009175;28;20462;-61
2023/12/26 02:29:43;;;;;;;0.60;0.50;;;8.90;99.90;;;;;;5007126;28;20483;-60
2023/12/26 02:32:11;;;;;;;0.90;0.50;;;9.00;99.90;;;;;;5004343;28;20541;-57
2023/12/26 02:34:38;;;;;;;0.70;0.50;;;9.00;99.90;;;;;;5007951;28;21015;-57
2023/12/26 02:37:05;;;;;;;1.63;0.70;;;9.00;99.90;;;;;;5009560;28;20459;-56
2023/12/26 02:39:32;;;;;;;1.00;0.50;;;9.00;99.90;;;;;;5010509;28;20538;-58
2023/12/26 02:42:00;;;;;;;0.67;0.50;;;9.00;99.90;;;;;;5007392;28;20876;-55
2023/12/26 02:44:26;;;;;;;0.60;0.53;;;9.00;99.90;;;;;;5009704;28;20467;-57
2023/12/26 02:46:53;;;;;;;1.70;0.60;;;9.10;99.90;;;;;;5008734;28;20467;-56
2023/12/26 02:49:19;;;;;;;0.93;0.50;;;9.10;99.90;;;;;;5009577;28;21046;-57
2023/12/26 02:51:46;;;;;;;0.90;0.50;;;9.10;99.90;;;;;;5010470;28;20557;-59
2023/12/26 02:54:13;;;;;;;1.30;0.43;;;9.10;99.90;;;;;;5005397;28;20494;-55
2023/12/26 02:56:39;;;;;;;0.60;0.40;;;9.10;99.90;;;;;;5004219;28;20569;-56
2023/12/26 02:59:07;;;;;;;0.60;0.53;;;9.10;99.90;;;;;;5007586;28;21536;-56
2023/12/26 03:01:33;;;;;;;3.27;0.60;;;9.10;99.90;;;;;;5010567;28;20456;-58
2023/12/26 03:04:00;;;;;;;0.70;0.47;;;9.20;99.90;;;;;;5003697;28;20561;-61
2023/12/26 03:06:27;;;;;;;0.87;0.50;;;9.20;99.90;;;;;;5008235;28;21024;-56
2023/12/26 03:08:53;;;;;;;0.60;0.47;;;9.20;99.90;;;;;;5008390;28;20891;-60
2023/12/26 03:11:20;;;;;;;0.70;0.60;;;9.20;99.90;;;;;;5009716;28;20479;-60
2023/12/26 03:13:46;;;;;;;1.27;0.60;;;9.20;99.90;;;;;;5003409;28;21043;-60
2023/12/26 03:16:14;;;;;;;0.60;0.50;;;9.20;99.90;;;;;;5009517;28;20893;-60
2023/12/26 03:18:41;;;;;;;0.60;0.37;;;9.20;99.90;;;;;;5007494;28;20459;-60
2023/12/26 03:21:07;;;;;;;0.70;0.40;;;9.20;99.90;;;;;;5008726;28;20459;-56
2023/12/26 03:23:34;;;;;;;1.10;0.40;;;9.20;99.90;;;;;;5006287;28;20456;-60
2023/12/26 03:26:00;;;;;;;2.87;0.60;;;9.20;99.90;;;;;;5007060;28;20941;-60
2023/12/26 03:28:27;;;;;;;1.07;0.50;;;9.20;99.90;;;;;;5006653;28;20877;-61
2023/12/26 03:30:54;;;;;;;0.70;0.40;;;9.20;99.90;;;;;;5009985;28;20536;-58
2023/12/26 03:33:21;;;;;;;0.70;0.50;;;9.20;99.90;;;;;;5007693;28;20513;-56
2023/12/26 03:35:48;;;;;;;0.90;0.50;;;9.20;99.90;;;;;;5006849;28;20831;-55
2023/12/26 03:38:15;;;;;;;0.70;0.43;;;9.20;99.90;;;;;;5012922;28;20463;-57
2023/12/26 03:40:42;;;;;;;0.90;0.50;;;9.20;99.90;;;;;;5017565;28;20530;-57
2023/12/26 03:43:08;;;;;;;1.53;0.57;;;9.20;99.90;;;;;;5013946;28;20470;-57
2023/12/26 03:45:35;;;;;;;0.60;0.40;;;9.10;99.90;;;;;;5011197;28;20459;-56
2023/12/26 03:48:02;;;;;;;0.60;0.30;;;9.10;99.90;;;;;;5014392;28;20466;-60
2023/12/26 03:50:30;;;;;;;0.80;0.47;;;9.10;99.90;;;;;;5011185;28;20468;-56
2023/12/26 03:52:56;;;;;;;0.60;0.40;;;9.10;99.90;;;;;;5009513;28;20459;-56
2023/12/26 03:55:23;;;;;;;1.47;0.93;;;9.10;99.90;;;;;;5009997;28;20464;-55
2023/12/26 03:57:50;;;;;;;0.60;0.50;;;9.10;99.90;;;;;;5008871;28;20521;-58
2023/12/26 04:00:17;;;;;;;0.60;0.30;;;9.10;99.90;;;;;;5009755;28;20545;-56
2023/12/26 04:02:43;;;;;;;0.60;0.47;;;9.10;99.90;;;;;;5014245;28;20478;-58
2023/12/26 04:05:10;;;;;;;1.00;0.40;;;9.10;99.90;;;;;;5013586;28;20451;-57
2023/12/26 04:07:39;;;;;;;0.60;0.40;;;9.10;99.90;;;;;;5012232;28;20440;-57
2023/12/26 04:10:06;;;;;;;0.70;0.60;;;9.00;99.90;;;;;;5010125;28;20908;-57
2023/12/26 04:12:34;;;;;;;0.60;0.40;;;9.00;99.90;;;;;;5008029;28;20565;-57
2023/12/26 04:15:01;;;;;;;0.60;0.40;;;9.00;99.90;;;;;;5010717;28;20654;-56
2023/12/26 04:17:27;;;;;;;0.60;0.40;;;9.00;99.90;;;;;;5007396;28;20547;-57
2023/12/26 04:19:54;;;;;;;0.70;0.40;;;9.00;99.90;;;;;;5010557;28;20533;-58
2023/12/26 04:22:20;;;;;;;1.93;0.40;;;9.00;99.90;;;;;;5009459;28;20460;-57
2023/12/26 04:24:48;;;;;;;1.07;0.43;;;9.00;99.90;;;;;;5008349;28;20460;-56
2023/12/26 04:27:15;;;;;;;1.00;0.40;;;9.00;99.90;;;;;;5010784;28;20467;-55
2023/12/26 04:29:42;;;;;;;0.60;0.30;;;9.00;99.90;;;;;;5010372;28;20475;-57
2023/12/26 04:32:10;;;;;;;0.60;0.40;;;9.00;99.90;;;;;;5007360;28;20483;-60
2023/12/26 04:34:38;;;;;;;0.60;0.40;;;8.90;99.90;;;;;;5006485;28;20459;-60
2023/12/26 04:37:04;;;;;;;0.60;0.30;;;9.00;99.90;;;;;;5007534;28;20546;-60
2023/12/26 04:39:31;;;;;;;1.00;0.50;;;8.90;99.90;;;;;;5009002;28;20475;-56
2023/12/26 04:41:59;;;;;;;1.73;0.40;;;8.90;99.90;;;;;;5008765;28;20794;-58
2023/12/26 04:44:26;;;;;;;0.60;0.40;;;8.90;99.90;;;;;;5007797;28;20634;-57
2023/12/26 04:46:52;;;;;;;1.20;0.50;;;8.90;99.90;;;;;;5009470;28;20553;-57
2023/12/26 04:49:19;;;;;;;0.60;0.40;;;8.90;99.90;;;;;;5008015;28;20479;-57
2023/12/26 04:51:46;;;;;;;0.60;0.40;;;8.90;99.90;;;;;;5008595;28;20542;-59
2023/12/26 04:54:12;;;;;;;0.80;0.40;;;8.90;99.90;;;;;;5007978;28;20467;-59
2023/12/26 04:56:43;;;;;;;0.60;0.47;;;8.90;99.90;;;;;;5009340;28;20526;-60
2023/12/26 04:59:11;;;;;;;0.60;0.40;;;8.90;99.90;;;;;;5017671;23;20488;-60
2023/12/26 05:01:41;;;;;;;1.23;0.40;;;8.90;99.90;;;;;;4999706;28;20457;-59
2023/12/26 05:04:09;;;;;;;0.90;0.40;;;8.90;99.90;;;;;;4988380;28;20469;-59
2023/12/26 05:06:36;;;;;;;0.90;0.40;;;8.90;99.90;;;;;;5000217;28;20467;-61
2023/12/26 05:09:03;;;;;;;0.60;0.37;;;8.90;99.90;;;;;;4992908;28;21048;-60
2023/12/26 05:11:29;;;;;;;0.60;0.40;;;8.90;99.90;;;;;;4991198;28;20557;-59
2023/12/26 05:13:56;;;;;;;0.83;0.50;;;8.90;99.90;;;;;;4990332;28;20465;-59
2023/12/26 05:16:24;;;;;;;0.60;0.40;;;8.90;99.90;;;;;;4987257;28;21024;-60
2023/12/26 05:18:51;;;;;;;0.70;0.57;;;8.90;99.90;;;;;;4986556;28;20495;-60
2023/12/26 05:21:19;;;;;;;0.60;0.43;;;8.90;99.90;;;;;;4990830;28;20460;-60
2023/12/26 05:23:46;;;;;;;0.90;0.50;;;8.90;99.90;;;;;;4991217;28;20499;-59
2023/12/26 05:26:12;;;;;;;1.93;0.50;;;8.90;99.90;;;;;;4990207;28;20672;-60
2023/12/26 05:28:39;;;;;;;1.53;0.67;;;8.90;99.90;;;;;;4990429;28;20465;-60
2023/12/26 05:31:06;;;;;;;0.90;0.50;;;8.90;99.90;;;;;;4987968;28;20516;-61
2023/12/26 05:33:34;;;;;;;1.53;0.33;;;8.90;99.90;;;;;;4991060;28;20479;-60
2023/12/26 05:36:01;;;;;;;1.00;0.60;;;8.90;99.90;;;;;;4988242;28;20468;-60
2023/12/26 05:38:27;;;;;;;0.60;0.50;;;8.80;99.90;;;;;;4990035;28;21049;-60
2023/12/26 05:40:54;;;;;;;0.60;0.50;;;8.80;99.90;;;;;;4994900;28;20557;-60
2023/12/26 05:43:21;;;;;;;0.60;0.40;;;8.90;99.90;;;;;;4993134;28;20873;-60
2023/12/26 05:45:48;;;;;;;0.60;0.40;;;8.80;99.90;;;;;;4989488;28;20480;-60
2023/12/26 05:48:15;;;;;;;0.60;0.60;;;8.80;99.90;;;;;;4990352;28;20472;-60
2023/12/26 05:50:43;;;;;;;0.60;0.60;;;8.80;99.90;;;;;;4990706;28;20488;-59
2023/12/26 05:53:09;;;;;;;0.60;0.40;;;8.80;99.90;;;;;;4996762;28;20493;-61
2023/12/26 05:55:36;;;;;;;2.70;0.40;;;8.80;99.90;;;;;;5012667;28;20444;-60
2023/12/26 05:58:02;;;;;;;1.80;0.63;;;8.80;99.90;;;;;;5007817;28;20471;-58
2023/12/26 06:00:29;;;;;;;1.27;0.50;;;8.80;99.90;;;;;;5011113;28;20469;-60
2023/12/26 06:02:55;;;;;;;0.60;0.50;;;8.80;99.90;;;;;;5010965;28;20448;-59
2023/12/26 06:05:22;;;;;;;0.60;0.57;;;8.80;99.90;;;;;;5007141;28;20464;-54
2023/12/26 06:07:50;;;;;;;0.60;0.50;;;8.80;99.90;;;;;;5010278;28;20460;-54
2023/12/26 06:10:18;;;;;;;0.60;0.43;;;8.80;99.90;;;;;;5005642;28;20826;-55
2023/12/26 06:12:45;;;;;;;0.97;0.60;;;8.80;99.90;;;;;;4988766;28;20503;-54
2023/12/26 06:15:11;;;;;;;0.60;0.40;;;8.80;99.90;;;;;;4985191;28;20465;-54
2023/12/26 06:17:38;;;;;;;0.60;0.50;;;8.70;99.90;;;;;;4988005;28;20456;-54
2023/12/26 06:20:06;;;;;;;0.60;0.40;;;8.70;99.90;;;;;;4989256;28;20878;-54
2023/12/26 06:22:33;;;;;;;0.70;0.40;;;8.70;99.90;;;;;;4985602;28;20466;-53
2023/12/26 06:25:00;;;;;;;0.60;0.57;;;8.70;99.90;;;;;;4987779;28;20535;-54
2023/12/26 06:27:27;;;;;;;0.60;0.40;;;8.70;99.90;;;;;;4986111;28;20811;-54
2023/12/26 06:29:54;;;;;;;0.90;0.40;;;8.70;99.90;;;;;;4991611;28;20460;-54
2023/12/26 06:32:20;;;;;;;0.60;0.40;;;8.70;99.90;;;;;;4988981;28;20485;-56
2023/12/26 06:34:47;;;;;;;0.60;0.50;;;8.70;99.90;;;;;;4992688;28;20448;-58
2023/12/26 06:37:14;;;;;;;0.60;0.40;;;8.70;99.90;;;;;;4987958;28;20942;-58
2023/12/26 06:39:42;;;;;;;0.60;0.30;;;8.70;99.90;;;;;;4983743;28;20481;-57
2023/12/26 06:42:10;;;;;;;0.60;0.40;;;8.70;99.90;;;;;;4988829;28;20465;-57
2023/12/26 06:44:37;;;;;;;1.17;0.40;;;8.70;99.90;;;;;;4996314;28;20446;-57
2023/12/26 06:47:04;;;;;;;0.60;0.30;;;8.70;99.90;;;;;;4985426;28;20464;-57
2023/12/26 06:49:30;;;;;;;0.60;0.30;;;8.70;99.90;;;;;;4987433;28;20484;-58
2023/12/26 06:51:59;;;;;;;0.70;0.40;;;8.70;99.90;;;;;;4990485;28;20929;-58
2023/12/26 06:54:25;;;;;;;0.60;0.50;;;8.70;99.90;;;;;;4987652;28;20487;-58
2023/12/26 06:56:52;;;;;;;0.60;0.50;;;8.70;99.90;;;;;;4987303;28;20504;-58
2023/12/26 06:59:20;;;;;;;0.83;0.60;;;8.60;99.90;;;;;;4990143;28;20492;-59
2023/12/26 07:01:48;;;;;;;1.03;0.50;;;8.70;99.90;;;;;;4989543;28;20535;-58
2023/12/26 07:04:14;;;;;;;0.60;0.50;;;8.60;99.90;;;;;;4987266;28;20480;-58
2023/12/26 07:06:41;;;;;;;0.70;0.50;;;8.60;99.90;;;;;;4981895;28;20950;-59
2023/12/26 07:09:08;;;;;;;0.90;0.50;;;8.70;99.90;;;;;;4994278;28;20484;-57
2023/12/26 07:11:34;;;;;;;1.00;0.50;;;8.70;99.90;;;;;;4991615;28;20966;-57
2023/12/26 07:14:01;;;;;;;1.23;0.53;;;8.70;99.90;;;;;;4991628;28;20456;-57
2023/12/26 07:16:30;;;;;;;0.70;0.60;;;8.70;99.90;;;;;;4992580;28;20527;-58
2023/12/26 07:18:56;;;;;;;1.27;0.67;;;8.70;99.90;;;;;;4994740;28;20487;-58
2023/12/26 07:21:23;;;;;;;0.80;0.40;;;8.60;99.90;;;;;;4994816;28;20961;-59
2023/12/26 07:23:50;;;;;;;0.60;0.40;;;8.60;99.90;;;;;;4992931;28;20534;-60
2023/12/26 07:26:16;;;;;;;0.70;0.50;;;8.50;99.90;;;;;;4996366;28;20464;-59
2023/12/26 07:28:43;;;;;;;0.60;0.40;;;8.40;99.90;;;;;;4990260;28;20460;-59
2023/12/26 07:31:09;;;;;;;0.80;0.53;;;8.50;99.90;;;;;;4989900;28;20469;-60
2023/12/26 07:33:39;;;;;;;1.07;0.40;;;8.50;99.90;;;;;;4987637;28;20520;-54
2023/12/26 07:36:11;;;;;;;0.63;0.50;;;8.60;99.90;;;;;;4996303;28;20584;-54
2023/12/26 07:38:37;;;;;;;1.33;0.40;;;8.60;99.90;;;;;;4990667;28;20471;-54
2023/12/26 07:41:04;;;;;;;0.80;0.50;;;8.60;99.90;;;;;;4992573;28;20494;-54
2023/12/26 07:43:31;;;;;;;0.80;0.50;;;8.60;99.90;;;;;;4992309;28;20462;-55
2023/12/26 07:45:57;;;;;;;1.67;0.53;;;8.60;99.90;;;;;;4994545;28;20460;-54
2023/12/26 07:48:24;;;;;;;1.07;0.47;;;8.60;99.90;;;;;;4989790;28;20453;-53
2023/12/26 07:50:52;;;;;;;0.63;0.50;;;8.60;99.90;;;;;;4995167;28;20526;-58
2023/12/26 07:53:18;;;;;;;0.60;0.50;;;8.60;99.90;;;;;;4991882;28;20485;-54
2023/12/26 07:55:45;;;;;;;1.57;0.60;;;8.60;99.90;;;;;;4990402;28;20465;-57
2023/12/26 07:58:12;;;;;;;2.07;0.60;;;8.60;99.90;;;;;;4988115;28;20488;-54
2023/12/26 08:00:38;;;;;;;1.40;0.60;;;8.50;99.90;;;;;;4995740;28;20544;-54
2023/12/26 08:03:05;;;;;;;0.70;0.60;;;8.50;99.90;;;;;;4990621;28;20461;-53
2023/12/26 08:05:32;;;;;;;0.90;0.70;;;8.50;99.90;;;;;;4994384;28;21048;-54
2023/12/26 08:08:00;;;;;;;1.67;0.87;;;8.50;99.90;;;;;;4994597;28;20519;-58
2023/12/26 08:10:26;;;;;;;1.37;0.60;;;8.60;99.90;;;;;;4989616;28;20485;-59
2023/12/26 08:12:53;;;;;;;0.60;0.40;;;8.60;99.90;;;;;;4992834;28;20520;-61
2023/12/26 08:15:19;;;;;;;0.80;0.50;;;8.60;99.90;;;;;;4987371;28;20468;-58
2023/12/26 08:17:46;;;;;;;1.87;1.17;;;8.50;99.90;;;;;;4992954;28;20486;-58
2023/12/26 08:20:13;;;;;;;0.70;0.60;;;8.50;99.90;;;;;;4990104;28;20507;-59
2023/12/26 08:22:40;;;;;;;1.03;0.50;;;8.50;99.90;;;;;;4989319;28;20465;-58
2023/12/26 08:25:09;;;;;;;1.77;0.77;;;8.60;99.90;;;;;;4994922;28;20507;-58
2023/12/26 08:27:36;;;;;;;0.70;0.57;;;8.60;99.90;;;;;;4989715;28;20467;-55
2023/12/26 08:30:04;;;;;;;0.77;0.50;;;8.60;99.90;;;;;;4991245;28;20758;-54
2023/12/26 08:32:30;;;;;;;1.53;0.60;;;8.60;99.90;;;;;;4992695;28;20582;-54
2023/12/26 08:34:59;;;;;;;1.43;0.70;;;8.70;99.90;;;;;;4992891;28;21021;-54
2023/12/26 08:37:25;;;;;;;1.83;0.77;;;8.70;99.90;;;;;;4987969;28;20465;-54
2023/12/26 08:39:52;;;;;;;1.40;0.70;;;8.80;99.90;;;;;;4989275;28;20531;-54
2023/12/26 08:42:20;;;;;;;2.70;0.60;;;8.70;81.30;;;;;;4989748;28;20460;-56
2023/12/26 08:44:46;;;;;;;2.20;1.00;;;8.80;99.90;;;;;;4993467;28;20881;-54
2023/12/26 08:47:14;;;;;;;1.60;0.93;;;8.80;31.40;;;;;;4989227;28;20519;-59
2023/12/26 08:49:40;;;;;;;3.93;0.70;;;8.80;32.50;;;;;;4987583;28;21080;-60
2023/12/26 08:52:07;;;;;;;1.43;0.70;;;8.80;30.60;;;;;;4987254;28;20461;-60
2023/12/26 08:54:33;;;;;;;1.83;0.70;;;8.80;44.70;;;;;;4988680;28;20465;-60
2023/12/26 08:57:00;;;;;;;1.97;1.00;;;8.70;37.40;;;;;;4986201;28;20986;-60
2023/12/26 08:59:28;;;;;;;2.20;1.00;;;8.70;41.50;;;;;;4988967;28;20551;-60
2023/12/26 09:01:56;;;;;;;2.20;1.20;;;8.90;31.90;;;;;;4991470;28;20829;-60
2023/12/26 09:04:26;;;;;;;4.00;0.90;;;8.90;54.30;;;;;;4993746;28;20507;-60
2023/12/26 09:06:52;;;;;;;2.87;1.10;;;8.80;60.00;;;;;;4993042;28;20526;-61
2023/12/26 09:09:19;;;;;;;2.30;0.80;;;8.70;58.90;;;;;;4997524;28;20985;-60
2023/12/26 09:11:45;;;;;;;1.17;0.90;;;8.70;66.10;;;;;;4992302;28;20469;-60
2023/12/26 09:14:13;;;;;;;2.13;1.37;;;8.80;63.60;;;;;;4994475;28;20489;-59
2023/12/26 09:16:41;;;;;;;3.13;1.10;;;8.70;76.90;;;;;;4992314;28;20461;-59
2023/12/26 09:19:08;;;;;;;4.00;1.63;;;8.70;73.70;;;;;;4993028;28;20468;-59
2023/12/26 09:21:34;;;;;;;4.77;1.40;;;8.60;79.60;;;;;;4989009;28;20534;-59
2023/12/26 09:24:01;;;;;;;3.50;1.20;;;8.70;97.80;;;;;;4989697;28;20951;-59
2023/12/26 09:26:27;;;;;;;6.90;2.73;;;8.90;88.90;;;;;;4993862;28;20452;-59
2023/12/26 09:28:54;;;;;;;6.10;2.17;;;9.00;96.70;;;;;;4993922;28;20775;-59
2023/12/26 09:31:21;;;;;;;3.33;1.00;;;9.00;98.00;;;;;;4991189;28;20539;-59
2023/12/26 09:33:49;;;;;;;3.20;1.33;;;9.10;99.90;;;;;;4993074;28;20511;-59
2023/12/26 09:36:16;;;;;;;2.70;1.13;;;9.20;99.90;;;;;;4990838;28;20468;-60
2023/12/26 09:38:43;;;;;;;4.03;1.30;;;9.20;99.90;;;;;;4997086;28;20461;-59
2023/12/26 09:41:13;;;;;;;3.57;1.30;;;9.10;99.90;;;;;;5001638;28;20504;-60
2023/12/26 09:43:40;;;;;;;2.10;0.90;;;9.00;99.90;;;;;;5008562;28;20445;-59
2023/12/26 09:46:07;;;;;;;8.20;2.20;;;9.00;99.90;;;;;;5007597;28;20444;-60
2023/12/26 09:48:34;;;;;;;6.10;1.47;;;9.00;99.90;;;;;;5008258;28;20748;-60
2023/12/26 09:51:05;;;;;;;3.70;1.30;;;9.00;99.90;;;;;;5006524;28;20461;-61
2023/12/26 09:53:34;;;;;;;5.10;1.33;;;9.10;99.90;;;;;;5003116;28;20571;-59
2023/12/26 09:56:01;;;;;;;6.07;1.83;;;9.10;99.90;;;;;;5006732;28;20523;-60
2023/12/26 09:58:29;;;;;;;4.03;1.63;;;9.10;99.90;;;;;;4995975;28;20476;-60
2023/12/26 10:00:57;;;;;;;3.90;1.70;;;9.10;99.90;;;;;;4989639;28;20499;-59
2023/12/26 10:03:25;;;;;;;3.13;1.77;;;9.10;99.90;;;;;;4990579;28;20465;-58
2023/12/26 10:05:57;;;;;;;3.63;1.53;;;9.10;99.90;;;;;;4992649;28;20524;-59
2023/12/26 10:08:25;;;;;;;4.73;1.07;;;9.10;99.90;;;;;;4985666;28;20464;-58
2023/12/26 10:10:52;;;;;;;5.17;1.60;;;9.10;99.90;;;;;;4991287;28;20967;-61
2023/12/26 10:13:18;;;;;;;3.67;1.60;;;9.10;99.90;;;;;;4992947;28;20484;-57
2023/12/26 10:15:45;;;;;;;5.80;1.37;;;9.10;99.90;;;;;;4989884;28;20519;-58
2023/12/26 10:18:12;;;;;;;10.80;2.20;;;9.10;99.90;;;;;;4991277;28;20503;-57
2023/12/26 10:20:38;;;;;;;5.30;1.47;;;9.30;99.90;;;;;;4991154;28;20471;-57
2023/12/26 10:23:05;;;;;;;5.97;1.47;;;9.30;99.90;;;;;;4994336;28;20468;-58
2023/12/26 10:25:33;;;;;;;2.93;1.37;;;9.20;99.90;;;;;;4992317;28;20491;-58
2023/12/26 10:28:00;;;;;;;6.33;1.87;;;9.50;99.90;;;;;;4991063;28;20468;-57
2023/12/26 10:30:27;;;;;;;6.90;2.03;;;9.50;99.90;;;;;;4990214;28;20484;-60
2023/12/26 10:33:00;;;;;;;5.17;1.73;;;9.40;99.90;;;;;;4991773;28;20531;-57
2023/12/26 10:35:27;;;;;;;4.63;1.87;;;9.20;99.90;;;;;;4980415;28;20534;-58
2023/12/26 10:37:54;;;;;;;3.13;1.73;;;9.10;99.90;;;;;;4994582;28;20455;-58
2023/12/26 10:40:20;;;;;;;5.03;1.87;;;9.00;99.90;;;;;;4997362;28;20489;-58
2023/12/26 10:42:50;;;;;;;6.43;1.63;;;9.00;99.90;;;;;;5004736;28;20461;-56
2023/12/26 10:45:19;;;;;;;2.13;1.13;;;9.30;99.90;;;;;;5008964;28;20600;-59
2023/12/26 10:47:49;;;;;;;3.70;1.30;;;9.20;99.90;;;;;;5011280;28;20452;-60
2023/12/26 10:50:18;;;;;;;6.33;1.93;;;9.20;99.90;;;;;;4993559;28;20475;-58
2023/12/26 10:52:52;;;;;;;7.20;2.50;;;9.20;99.90;;;;;;4991371;28;20510;-58
2023/12/26 10:55:20;;;;;;;5.20;2.43;;;9.20;99.90;;;;;;4989913;28;20988;-58
2023/12/26 10:57:49;;;;;;;4.60;1.43;;;9.10;99.90;;;;;;4992173;28;20464;-57
2023/12/26 11:00:15;;;;;;;4.70;1.80;;;9.10;99.90;;;;;;5018902;23;20637;-61
2023/12/26 11:02:42;;;;;;;12.20;2.10;;;9.10;99.90;;;;;;5014926;28;20476;-60
2023/12/26 11:05:09;;;;;;;9.57;3.97;;;9.10;99.90;;;;;;5009256;28;20201;-60
2023/12/26 11:07:34;;;;;;;7.30;2.20;;;9.10;99.90;;;;;;4998264;28;20471;-60
2023/12/26 11:10:00;;;;;;;3.37;1.63;;;9.00;99.90;;;;;;5006185;28;21031;-60
2023/12/26 11:12:28;;;;;;;3.70;1.70;;;9.00;99.90;;;;;;5012891;28;20203;-61
2023/12/26 11:14:55;;;;;;;10.90;2.17;;;8.90;99.90;;;;;;5020012;28;20635;-55
2023/12/26 11:17:21;;;;;;;6.70;1.80;;;8.90;99.90;;;;;;5028423;28;20469;-56
2023/12/26 11:19:47;;;;;;;4.63;1.70;;;8.90;99.90;;;;;;5031695;28;20851;-57
2023/12/26 11:22:13;;;;;;;9.80;1.63;;;8.90;99.90;;;;;;5025757;28;20289;-61
2023/12/26 11:24:39;;;;;;;5.20;1.80;;;9.00;99.90;;;;;;5029676;28;20558;-56
2023/12/26 11:27:06;;;;;;;3.97;1.73;;;8.90;99.90;;;;;;5031871;28;21007;-56
2023/12/26 11:29:32;;;;;;;3.60;1.67;;;9.00;99.90;;;;;;5033241;28;20705;-57
2023/12/26 11:31:59;;;;;;;5.23;2.03;;;9.00;99.90;;;;;;5034335;28;20473;-56
2023/12/26 11:34:26;;;;;;;6.60;1.80;;;8.90;99.90;;;;;;5034690;28;20236;-56
2023/12/26 11:36:54;;;;;;;4.87;1.97;;;9.00;99.90;;;;;;5033904;28;20792;-56
2023/12/26 11:39:22;;;;;;;4.33;1.73;;;8.90;99.90;;;;;;5033861;28;20467;-55
2023/12/26 11:41:49;;;;;;;3.47;1.50;;;8.90;99.90;;;;;;5034444;28;20454;-54
2023/12/26 11:44:15;;;;;;;5.40;1.73;;;9.00;99.90;;;;;;5034279;28;20504;-56
2023/12/26 11:46:41;;;;;;;4.87;1.80;;;9.00;99.90;;;;;;5034912;28;20447;-56
2023/12/26 11:49:09;;;;;;;6.80;2.23;;;9.00;99.90;;;;;;5037556;28;20466;-61
2023/12/26 11:51:35;;;;;;;6.20;1.77;;;9.00;99.90;;;;;;5035765;28;20208;-61
2023/12/26 11:54:01;;;;;;;2.93;1.40;;;9.10;99.90;;;;;;5036798;28;20513;-60
2023/12/26 11:56:27;;;;;;;3.70;1.77;;;9.10;99.90;;;;;;5036121;28;20204;-60
2023/12/26 11:58:53;;;;;;;6.30;2.20;;;9.10;99.90;;;;;;5034046;28;20585;-60
2023/12/26 12:01:19;;;;;;;9.57;2.00;;;9.20;99.90;;;;;;5034271;28;20497;-61
2023/12/26 12:03:45;;;;;;;5.97;1.90;;;9.20;99.90;;;;;;5033906;28;20294;-61
2023/12/26 12:06:16;;;;;;;3.63;1.43;;;9.20;99.90;;;;;;5034307;28;20266;-56
2023/12/26 12:09:03;;;;;;;6.97;1.40;;;9.20;99.90;;;;;;5033685;28;20450;-56
2023/12/26 12:11:29;;;;;;;7.33;1.93;;;9.30;99.70;;;;;;5028858;28;20876;-56
2023/12/26 12:13:55;;;;;;;6.00;2.00;;;9.20;99.90;;;;;;5033760;28;20483;-55
2023/12/26 12:16:22;;;;;;;7.03;1.50;;;9.30;99.90;;;;;;5033129;28;20208;-56
2023/12/26 12:18:59;;;;;;;8.90;1.77;;;9.30;99.90;;;;;;5033380;28;20580;-55
2023/12/26 12:21:35;;;;;;;3.40;1.40;;;9.30;99.90;;;;;;5021413;28;20443;-61
2023/12/26 12:24:03;;;;;;;4.23;1.40;;;9.30;21.30;;;;;;5033619;28;20438;-57
2023/12/26 12:26:28;;;;;;;4.50;1.43;;;9.40;24.80;;;;;;5033521;28;20459;-57
2023/12/26 12:29:03;;;;;;;1.70;1.10;;;9.40;99.90;;;;;;5033368;28;20435;-57
2023/12/26 12:31:28;;;;;;;6.60;1.43;;;9.40;24.90;;;;;;5032995;28;20673;-61
2023/12/26 12:34:12;;;;;;;6.97;1.80;;;9.40;22.40;;;;;;5033342;28;20505;-61
2023/12/26 12:36:40;;;;;;;5.23;1.67;;;9.40;71.90;;;;;;5033433;28;20212;-60
2023/12/26 12:39:06;;;;;;;9.20;1.80;;;9.40;26.60;;;;;;5032866;28;20470;-61
2023/12/26 12:41:35;;;;;;;3.50;1.53;;;9.40;20.00;;;;;;5033379;28;20443;-62
2023/12/26 12:44:00;;;;;;;4.63;1.40;;;9.40;91.80;;;;;;5033330;28;20208;-57
2023/12/26 12:46:26;;;;;;;1.43;1.30;;;9.40;77.00;;;;;;5032133;28;20492;-57
2023/12/26 12:48:53;;;;;;;5.67;1.63;;;9.30;21.70;;;;;;5032559;28;20672;-56
2023/12/26 12:51:18;;;;;;;5.90;1.90;;;9.30;27.00;;;;;;5033328;28;20204;-57
2023/12/26 12:53:45;;;;;;;5.97;1.53;;;9.30;24.80;;;;;;5033075;28;20538;-56
2023/12/26 12:56:12;;;;;;;5.30;1.40;;;9.30;99.90;;;;;;5032913;28;20730;-57
2023/12/26 12:58:37;;;;;;;5.63;1.87;;;9.20;84.20;;;;;;5032984;28;20447;-57